createdAt,value
2017-08-13T00:00:17.678Z,4.00
2017-08-13T00:01:17.699Z,4.00
2017-08-13T00:02:17.727Z,3.90
2017-08-13T00:03:17.750Z,3.60
2017-08-13T00:04:17.767Z,3.70
2017-08-13T00:05:17.790Z,3.70
2017-08-13T00:06:17.818Z,4.10
2017-08-13T00:07:17.848Z,3.70
2017-08-13T00:08:17.863Z,3.90
2017-08-13T00:09:17.882Z,3.30
2017-08-13T00:10:17.901Z,3.70
2017-08-13T00:11:17.931Z,3.50
2017-08-13T00:12:17.952Z,3.80
2017-08-13T00:13:17.971Z,3.70
2017-08-13T00:14:17.997Z,3.80
2017-08-13T00:15:18.014Z,3.50
2017-08-13T00:16:18.037Z,3.80
2017-08-13T00:17:18.059Z,3.30
2017-08-13T00:18:18.082Z,3.80
2017-08-13T00:19:18.114Z,3.70
2017-08-13T00:20:18.127Z,3.60
2017-08-13T00:21:18.165Z,3.60
2017-08-13T00:22:18.170Z,3.60
2017-08-13T00:23:18.192Z,3.80
2017-08-13T00:24:18.218Z,3.60
2017-08-13T00:25:18.242Z,3.80
2017-08-13T00:26:18.265Z,3.40
2017-08-13T00:27:18.286Z,3.40
2017-08-13T00:28:18.303Z,3.60
2017-08-13T00:29:18.327Z,3.90
2017-08-13T00:30:18.357Z,3.80
2017-08-13T00:31:18.372Z,3.80
2017-08-13T00:32:18.392Z,3.90
2017-08-13T00:33:18.439Z,3.70
2017-08-13T00:34:18.444Z,3.90
2017-08-13T00:35:18.466Z,3.70
2017-08-13T00:36:18.489Z,3.40
2017-08-13T00:37:18.508Z,3.90
2017-08-13T00:38:18.528Z,3.70
2017-08-13T00:39:18.570Z,3.70
2017-08-13T00:40:18.579Z,4.00
2017-08-13T00:41:18.596Z,3.60
2017-08-13T00:42:18.619Z,3.70
2017-08-13T00:43:18.644Z,3.60
2017-08-13T00:44:18.666Z,3.40
2017-08-13T00:45:18.691Z,3.50
2017-08-13T00:46:18.712Z,3.70
2017-08-13T00:47:18.730Z,3.80
2017-08-13T00:48:18.751Z,3.80
2017-08-13T00:49:18.779Z,3.90
2017-08-13T00:50:18.799Z,3.60
2017-08-13T00:51:18.821Z,3.70
2017-08-13T00:52:18.854Z,3.80
2017-08-13T00:53:18.873Z,3.80
2017-08-13T00:54:18.892Z,3.80
2017-08-13T00:55:18.910Z,3.60
2017-08-13T00:56:18.930Z,3.60
2017-08-13T00:57:18.956Z,3.80
2017-08-13T00:58:18.979Z,3.70
2017-08-13T00:59:19.006Z,3.90
2017-08-13T01:00:19.023Z,3.50
2017-08-13T01:01:19.046Z,3.50
2017-08-13T01:02:19.078Z,3.70
2017-08-13T01:03:19.090Z,3.60
2017-08-13T01:04:19.115Z,3.80
2017-08-13T01:05:19.145Z,3.40
2017-08-13T01:06:19.160Z,3.60
2017-08-13T01:07:19.182Z,3.50
2017-08-13T01:08:19.219Z,3.20
2017-08-13T01:09:19.223Z,3.60
2017-08-13T01:10:19.246Z,3.70
2017-08-13T01:11:19.280Z,3.60
2017-08-13T01:12:19.294Z,3.60
2017-08-13T01:13:19.314Z,3.80
2017-08-13T01:14:19.335Z,3.40
2017-08-13T01:15:19.362Z,3.60
2017-08-13T01:16:19.387Z,3.80
2017-08-13T01:17:19.406Z,3.50
2017-08-13T01:18:19.435Z,3.40
2017-08-13T01:19:19.449Z,3.70
2017-08-13T01:20:19.469Z,3.70
2017-08-13T01:21:19.494Z,3.80
2017-08-13T01:22:19.524Z,3.30
2017-08-13T01:23:19.544Z,3.50
2017-08-13T01:24:19.575Z,3.70
2017-08-13T01:25:19.591Z,3.50
2017-08-13T01:26:19.608Z,3.50
2017-08-13T01:27:19.629Z,3.50
2017-08-13T01:28:19.653Z,3.80
2017-08-13T01:29:19.684Z,3.70
2017-08-13T01:30:19.708Z,3.60
2017-08-13T01:31:19.721Z,3.50
2017-08-13T01:32:19.740Z,3.50
2017-08-13T01:33:19.764Z,3.60
2017-08-13T01:34:19.782Z,3.20
2017-08-13T01:35:19.809Z,3.50
2017-08-13T01:36:19.844Z,3.30
2017-08-13T01:37:19.853Z,3.50
2017-08-13T01:38:19.875Z,3.10
2017-08-13T01:39:19.897Z,3.20
2017-08-13T01:40:19.926Z,3.50
2017-08-13T01:41:19.944Z,3.40
2017-08-13T01:42:19.967Z,3.40
2017-08-13T01:43:19.994Z,3.40
2017-08-13T01:44:20.015Z,3.80
2017-08-13T01:45:20.034Z,3.30
2017-08-13T01:46:20.055Z,3.40
2017-08-13T01:47:20.078Z,3.90
2017-08-13T01:48:20.104Z,3.20
2017-08-13T01:49:20.127Z,3.50
2017-08-13T01:50:20.157Z,3.90
2017-08-13T01:51:20.174Z,3.30
2017-08-13T01:52:20.189Z,3.50
2017-08-13T01:53:20.212Z,3.50
2017-08-13T01:54:20.239Z,3.60
2017-08-13T01:55:20.261Z,3.70
2017-08-13T01:56:20.305Z,3.20
2017-08-13T01:57:20.303Z,3.90
2017-08-13T01:58:20.325Z,3.50
2017-08-13T01:59:20.350Z,4.10
2017-08-13T02:00:20.367Z,3.50
2017-08-13T02:01:20.443Z,3.70
2017-08-13T02:02:20.419Z,3.80
2017-08-13T02:03:20.443Z,3.70
2017-08-13T02:04:20.462Z,3.30
2017-08-13T02:05:20.483Z,3.50
2017-08-13T02:06:20.502Z,3.30
2017-08-13T02:07:20.529Z,4.00
2017-08-13T02:08:20.552Z,4.10
2017-08-13T02:09:20.580Z,3.20
2017-08-13T02:10:20.593Z,3.50
2017-08-13T02:11:20.619Z,3.30
2017-08-13T02:12:20.639Z,3.20
2017-08-13T02:13:20.661Z,3.80
2017-08-13T02:14:20.684Z,3.80
2017-08-13T02:15:20.716Z,3.60
2017-08-13T02:16:20.730Z,3.70
2017-08-13T02:17:20.752Z,3.40
2017-08-13T02:18:20.775Z,3.10
2017-08-13T02:19:20.797Z,3.40
2017-08-13T02:20:20.816Z,3.40
2017-08-13T02:21:20.844Z,3.20
2017-08-13T02:22:20.864Z,3.50
2017-08-13T02:23:20.882Z,3.50
2017-08-13T02:24:20.905Z,3.20
2017-08-13T02:25:20.928Z,3.50
2017-08-13T02:26:20.958Z,3.60
2017-08-13T02:27:21.005Z,3.20
2017-08-13T02:28:21.002Z,3.40
2017-08-13T02:29:21.018Z,3.60
2017-08-13T02:30:21.040Z,3.70
2017-08-13T02:31:21.060Z,3.80
2017-08-13T02:32:21.085Z,3.20
2017-08-13T02:33:21.106Z,3.00
2017-08-13T02:34:21.134Z,3.20
2017-08-13T02:35:21.163Z,3.20
2017-08-13T02:36:21.171Z,3.50
2017-08-13T02:37:21.201Z,3.50
2017-08-13T02:38:21.222Z,3.10
2017-08-13T02:39:21.246Z,3.60
2017-08-13T02:40:21.264Z,3.20
2017-08-13T02:41:21.292Z,3.30
2017-08-13T02:42:21.307Z,3.20
2017-08-13T02:43:21.343Z,3.10
2017-08-13T02:44:21.358Z,3.40
2017-08-13T02:45:21.373Z,3.60
2017-08-13T02:46:21.404Z,3.30
2017-08-13T02:47:21.421Z,3.40
2017-08-13T02:48:21.446Z,3.40
2017-08-13T02:49:21.470Z,3.20
2017-08-13T02:50:21.489Z,3.30
2017-08-13T02:51:21.511Z,3.20
2017-08-13T02:52:21.532Z,3.00
2017-08-13T02:53:21.566Z,3.10
2017-08-13T02:54:21.578Z,3.20
2017-08-13T02:55:21.596Z,2.80
2017-08-13T02:56:21.618Z,2.90
2017-08-13T02:57:21.641Z,2.80
2017-08-13T02:58:21.665Z,3.00
2017-08-13T02:59:21.699Z,3.10
2017-08-13T03:00:21.733Z,3.20
2017-08-13T03:01:21.734Z,2.80
2017-08-13T03:02:21.758Z,2.60
2017-08-13T03:03:21.779Z,2.80
2017-08-13T03:04:21.798Z,3.00
2017-08-13T03:05:21.825Z,2.90
2017-08-13T03:06:21.847Z,3.00
2017-08-13T03:07:21.867Z,2.70
2017-08-13T03:08:21.887Z,3.10
2017-08-13T03:09:21.908Z,3.00
2017-08-13T03:10:21.931Z,2.90
2017-08-13T03:11:21.959Z,2.90
2017-08-13T03:12:21.983Z,2.90
2017-08-13T03:13:22.013Z,2.80
2017-08-13T03:14:22.024Z,3.00
2017-08-13T03:15:22.043Z,3.00
2017-08-13T03:16:22.065Z,2.50
2017-08-13T03:17:22.088Z,2.90
2017-08-13T03:18:22.129Z,2.80
2017-08-13T03:19:22.136Z,2.50
2017-08-13T03:20:22.168Z,3.20
2017-08-13T03:21:22.174Z,2.60
2017-08-13T03:22:22.203Z,3.10
2017-08-13T03:23:22.221Z,2.70
2017-08-13T03:24:22.244Z,2.80
2017-08-13T03:25:22.265Z,2.70
2017-08-13T03:26:22.291Z,2.60
2017-08-13T03:27:22.317Z,2.80
2017-08-13T03:28:22.329Z,2.70
2017-08-13T03:29:22.351Z,2.90
2017-08-13T03:30:22.376Z,2.50
2017-08-13T03:31:22.403Z,2.80
2017-08-13T03:32:22.422Z,2.80
2017-08-13T03:33:22.455Z,3.50
2017-08-13T03:34:22.468Z,2.50
2017-08-13T03:35:22.486Z,2.50
2017-08-13T03:36:22.510Z,2.60
2017-08-13T03:37:22.540Z,2.50
2017-08-13T03:38:22.565Z,2.30
2017-08-13T03:39:22.589Z,2.50
2017-08-13T03:40:22.601Z,2.50
2017-08-13T03:41:22.622Z,2.70
2017-08-13T03:42:22.652Z,2.60
2017-08-13T03:43:22.666Z,2.60
2017-08-13T03:44:22.690Z,2.70
2017-08-13T03:45:22.721Z,2.50
2017-08-13T03:46:22.741Z,2.70
2017-08-13T03:47:22.754Z,2.50
2017-08-13T03:48:22.773Z,2.60
2017-08-13T03:49:22.796Z,2.40
2017-08-13T03:50:22.820Z,2.50
2017-08-13T03:51:22.849Z,2.40
2017-08-13T03:52:22.862Z,2.40
2017-08-13T03:53:22.888Z,2.30
2017-08-13T03:54:22.909Z,2.60
2017-08-13T03:55:22.935Z,2.50
2017-08-13T03:56:22.953Z,2.30
2017-08-13T03:57:22.976Z,2.40
2017-08-13T03:58:23.042Z,2.40
2017-08-13T03:59:23.024Z,2.40
2017-08-13T04:00:23.050Z,2.40
2017-08-13T04:01:23.064Z,2.70
2017-08-13T04:02:23.084Z,2.40
2017-08-13T04:03:23.116Z,2.30
2017-08-13T04:04:23.152Z,2.60
2017-08-13T04:05:23.153Z,2.20
2017-08-13T04:06:23.175Z,2.50
2017-08-13T04:07:23.200Z,2.50
2017-08-13T04:08:23.220Z,2.80
2017-08-13T04:09:23.250Z,2.40
2017-08-13T04:10:23.277Z,2.80
2017-08-13T04:11:23.300Z,2.40
2017-08-13T04:12:23.319Z,2.50
2017-08-13T04:13:23.332Z,2.60
2017-08-13T04:14:23.353Z,2.40
2017-08-13T04:15:23.377Z,2.30
2017-08-13T04:16:23.395Z,2.50
2017-08-13T04:17:23.425Z,2.40
2017-08-13T04:18:23.450Z,2.50
2017-08-13T04:19:23.462Z,2.80
2017-08-13T04:20:23.484Z,2.70
2017-08-13T04:21:23.506Z,2.50
2017-08-13T04:22:23.533Z,2.70
2017-08-13T04:23:23.550Z,2.20
2017-08-13T04:24:23.574Z,2.20
2017-08-13T04:25:23.598Z,2.20
2017-08-13T04:26:23.621Z,2.30
2017-08-13T04:27:23.637Z,2.10
2017-08-13T04:28:23.659Z,2.20
2017-08-13T04:29:23.683Z,2.60
2017-08-13T04:30:23.715Z,2.40
2017-08-13T04:31:23.770Z,2.30
2017-08-13T04:32:23.765Z,2.70
2017-08-13T04:33:23.775Z,2.50
2017-08-13T04:34:23.793Z,2.50
2017-08-13T04:35:23.816Z,2.30
2017-08-13T04:36:23.839Z,2.50
2017-08-13T04:37:23.865Z,2.40
2017-08-13T04:38:23.885Z,2.20
2017-08-13T04:39:23.906Z,2.30
2017-08-13T04:40:23.927Z,2.20
2017-08-13T04:41:23.953Z,2.30
2017-08-13T04:42:23.974Z,2.40
2017-08-13T04:43:23.998Z,2.50
2017-08-13T04:44:24.015Z,2.30
2017-08-13T04:45:24.038Z,2.20
2017-08-13T04:46:24.061Z,1.90
2017-08-13T04:47:24.081Z,2.30
2017-08-13T04:48:24.103Z,2.10
2017-08-13T04:49:24.126Z,2.20
2017-08-13T04:50:24.158Z,2.00
2017-08-13T04:51:24.173Z,2.30
2017-08-13T04:52:24.193Z,2.10
2017-08-13T04:53:24.214Z,2.10
2017-08-13T04:54:24.237Z,2.30
2017-08-13T04:55:24.263Z,1.90
2017-08-13T04:56:24.288Z,2.20
2017-08-13T04:57:24.313Z,2.00
2017-08-13T04:58:24.327Z,2.00
2017-08-13T04:59:24.349Z,2.30
2017-08-13T05:00:24.376Z,2.40
2017-08-13T05:01:24.397Z,2.60
2017-08-13T05:02:24.418Z,2.20
2017-08-13T05:03:24.449Z,2.10
2017-08-13T05:04:24.459Z,2.20
2017-08-13T05:05:24.483Z,2.10
2017-08-13T05:06:24.526Z,2.30
2017-08-13T05:07:24.526Z,2.20
2017-08-13T05:08:24.546Z,2.20
2017-08-13T05:09:24.570Z,2.30
2017-08-13T05:10:24.597Z,2.20
2017-08-13T05:11:24.624Z,2.10
2017-08-13T05:12:24.642Z,2.30
2017-08-13T05:13:24.660Z,2.20
2017-08-13T05:14:24.684Z,2.10
2017-08-13T05:15:24.711Z,2.50
2017-08-13T05:16:24.730Z,2.10
2017-08-13T05:17:24.749Z,2.10
2017-08-13T05:18:24.773Z,2.40
2017-08-13T05:19:24.797Z,2.30
2017-08-13T05:20:24.821Z,2.10
2017-08-13T05:21:24.840Z,2.10
2017-08-13T05:22:24.867Z,2.40
2017-08-13T05:23:24.893Z,2.20
2017-08-13T05:24:24.912Z,2.40
2017-08-13T05:25:24.971Z,2.00
2017-08-13T05:26:24.954Z,2.30
2017-08-13T05:27:24.985Z,2.30
2017-08-13T05:28:25.005Z,2.10
2017-08-13T05:29:25.030Z,2.20
2017-08-13T05:30:25.048Z,2.30
2017-08-13T05:31:25.082Z,2.20
2017-08-13T05:32:25.093Z,2.20
2017-08-13T05:33:25.120Z,2.20
2017-08-13T05:34:25.145Z,2.50
2017-08-13T05:35:25.174Z,2.10
2017-08-13T05:36:25.187Z,2.30
2017-08-13T05:37:25.213Z,2.20
2017-08-13T05:38:25.232Z,2.50
2017-08-13T05:39:25.264Z,2.50
2017-08-13T05:40:25.281Z,2.30
2017-08-13T05:41:25.308Z,2.60
2017-08-13T05:42:25.330Z,2.40
2017-08-13T05:43:25.360Z,2.40
2017-08-13T05:44:25.376Z,2.70
2017-08-13T05:45:25.405Z,3.00
2017-08-13T05:46:25.423Z,2.50
2017-08-13T05:47:25.459Z,2.70
2017-08-13T05:48:25.469Z,2.80
2017-08-13T05:49:25.498Z,2.70
2017-08-13T05:50:25.519Z,2.20
2017-08-13T05:51:25.542Z,2.40
2017-08-13T05:52:25.570Z,2.80
2017-08-13T05:53:25.591Z,2.80
2017-08-13T05:54:25.612Z,3.10
2017-08-13T05:55:25.645Z,2.90
2017-08-13T05:56:25.660Z,2.50
2017-08-13T05:57:25.685Z,3.00
2017-08-13T05:58:25.707Z,2.80
2017-08-13T05:59:25.730Z,2.80
2017-08-13T06:00:25.753Z,3.20
2017-08-13T06:01:25.780Z,2.90
2017-08-13T06:02:25.801Z,3.40
2017-08-13T06:03:25.826Z,2.90
2017-08-13T06:04:25.855Z,3.20
2017-08-13T06:05:25.872Z,3.20
2017-08-13T06:06:25.900Z,3.10
2017-08-13T06:07:25.929Z,2.90
2017-08-13T06:08:25.947Z,2.70
2017-08-13T06:09:25.979Z,2.70
2017-08-13T06:10:25.998Z,3.00
2017-08-13T06:11:26.017Z,2.70
2017-08-13T06:12:26.038Z,2.60
2017-08-13T06:13:26.067Z,2.70
2017-08-13T06:14:26.086Z,2.80
2017-08-13T06:15:26.111Z,2.80
2017-08-13T06:16:26.173Z,2.60
2017-08-13T06:17:26.160Z,2.80
2017-08-13T06:18:26.184Z,2.40
2017-08-13T06:19:26.210Z,2.80
2017-08-13T06:20:26.230Z,2.40
2017-08-13T06:21:26.255Z,3.00
2017-08-13T06:22:26.283Z,2.20
2017-08-13T06:23:26.304Z,2.30
2017-08-13T06:24:26.355Z,2.50
2017-08-13T06:25:26.357Z,2.20
2017-08-13T06:26:26.374Z,2.40
2017-08-13T06:27:26.413Z,2.70
2017-08-13T06:28:26.429Z,2.20
2017-08-13T06:29:26.448Z,3.00
2017-08-13T06:30:26.475Z,3.20
2017-08-13T06:31:26.500Z,2.60
2017-08-13T06:32:26.519Z,2.50
2017-08-13T06:33:26.602Z,2.50
2017-08-13T06:34:26.571Z,2.50
2017-08-13T06:35:26.595Z,2.80
2017-08-13T06:36:26.667Z,2.30
2017-08-13T06:37:26.692Z,2.80
2017-08-13T06:38:26.674Z,2.50
2017-08-13T06:39:26.694Z,2.70
2017-08-13T06:40:26.719Z,2.70
2017-08-13T06:41:26.740Z,2.70
2017-08-13T06:42:26.764Z,2.60
2017-08-13T06:43:26.788Z,2.70
2017-08-13T06:44:26.819Z,2.60
2017-08-13T06:45:26.837Z,2.70
2017-08-13T06:46:26.861Z,2.60
2017-08-13T06:47:26.887Z,2.40
2017-08-13T06:48:26.913Z,2.50
2017-08-13T06:49:26.939Z,2.40
2017-08-13T06:50:26.966Z,2.50
2017-08-13T06:51:26.985Z,2.20
2017-08-13T06:52:27.019Z,2.30
2017-08-13T06:53:27.038Z,2.30
2017-08-13T06:54:27.066Z,2.40
2017-08-13T06:55:27.101Z,2.40
2017-08-13T06:56:27.112Z,2.30
2017-08-13T06:57:27.134Z,2.00
2017-08-13T06:58:27.161Z,2.80
2017-08-13T06:59:27.195Z,2.40
2017-08-13T07:00:27.220Z,2.40
2017-08-13T07:01:27.243Z,2.50
2017-08-13T07:02:27.261Z,2.50
2017-08-13T07:03:27.314Z,2.60
2017-08-13T07:04:27.326Z,2.80
2017-08-13T07:05:27.333Z,2.40
2017-08-13T07:06:27.361Z,2.40
2017-08-13T07:07:27.388Z,2.40
2017-08-13T07:08:27.407Z,2.70
2017-08-13T07:09:27.433Z,2.70
2017-08-13T07:10:27.480Z,2.40
2017-08-13T07:11:27.484Z,2.50
2017-08-13T07:12:27.527Z,2.50
2017-08-13T07:13:27.541Z,2.50
2017-08-13T07:14:27.566Z,2.30
2017-08-13T07:15:27.585Z,2.20
2017-08-13T07:16:27.608Z,2.10
2017-08-13T07:17:27.644Z,2.10
2017-08-13T07:18:27.658Z,2.10
2017-08-13T07:19:27.686Z,2.10
2017-08-13T07:20:27.707Z,2.10
2017-08-13T07:21:27.745Z,2.00
2017-08-13T07:22:27.775Z,2.00
2017-08-13T07:23:27.792Z,1.90
2017-08-13T07:24:27.813Z,2.20
2017-08-13T07:25:27.836Z,2.00
2017-08-13T07:26:27.861Z,1.70
2017-08-13T07:27:27.900Z,2.10
2017-08-13T07:28:27.916Z,2.10
2017-08-13T07:29:27.936Z,1.70
2017-08-13T07:30:27.962Z,1.60
2017-08-13T07:31:27.984Z,2.00
2017-08-13T07:32:28.009Z,2.00
2017-08-13T07:33:28.038Z,2.30
2017-08-13T07:34:28.065Z,1.60
2017-08-13T07:35:28.087Z,1.90
2017-08-13T07:36:28.112Z,1.90
2017-08-13T07:37:28.134Z,2.10
2017-08-13T07:38:28.167Z,1.70
2017-08-13T07:39:28.188Z,1.90
2017-08-13T07:40:28.220Z,2.00
2017-08-13T07:41:28.235Z,1.90
2017-08-13T07:42:28.258Z,1.70
2017-08-13T07:43:28.284Z,1.90
2017-08-13T07:44:28.315Z,1.90
2017-08-13T07:45:28.339Z,1.60
2017-08-13T07:46:28.360Z,1.50
2017-08-13T07:47:28.384Z,1.40
2017-08-13T07:48:28.411Z,1.60
2017-08-13T07:49:28.437Z,1.80
2017-08-13T07:50:28.465Z,1.70
2017-08-13T07:51:28.483Z,1.80
2017-08-13T07:52:28.506Z,1.60
2017-08-13T07:53:28.534Z,1.80
2017-08-13T07:54:28.558Z,1.70
2017-08-13T07:55:28.581Z,1.60
2017-08-13T07:56:28.615Z,1.50
2017-08-13T07:57:28.630Z,1.60
2017-08-13T07:58:28.658Z,1.60
2017-08-13T07:59:28.679Z,1.50
2017-08-13T08:00:28.704Z,1.60
2017-08-13T08:01:28.756Z,1.50
2017-08-13T08:02:28.758Z,1.70
2017-08-13T08:03:28.781Z,1.60
2017-08-13T08:04:28.804Z,1.50
2017-08-13T08:05:28.828Z,1.40
2017-08-13T08:06:28.900Z,1.30
2017-08-13T08:07:28.883Z,1.60
2017-08-13T08:08:28.909Z,1.80
2017-08-13T08:09:28.926Z,1.60
2017-08-13T08:10:28.962Z,1.60
2017-08-13T08:11:28.978Z,1.60
2017-08-13T08:12:29.002Z,1.50
2017-08-13T08:13:29.027Z,1.40
2017-08-13T08:14:29.050Z,1.60
2017-08-13T08:15:29.077Z,1.40
2017-08-13T08:16:29.099Z,1.50
2017-08-13T08:17:29.132Z,1.50
2017-08-13T08:18:29.156Z,1.40
2017-08-13T08:19:29.175Z,1.20
2017-08-13T08:20:29.201Z,1.30
2017-08-13T08:21:29.222Z,1.30
2017-08-13T08:22:29.249Z,1.60
2017-08-13T08:23:29.275Z,1.30
2017-08-13T08:24:29.303Z,1.30
2017-08-13T08:25:29.332Z,1.50
2017-08-13T08:26:29.346Z,1.30
2017-08-13T08:27:29.376Z,1.30
2017-08-13T08:28:29.401Z,1.20
2017-08-13T08:29:29.419Z,1.30
2017-08-13T08:30:29.449Z,1.50
2017-08-13T08:31:29.470Z,1.40
2017-08-13T08:32:29.496Z,1.20
2017-08-13T08:33:29.518Z,1.40
2017-08-13T08:34:29.558Z,1.20
2017-08-13T08:35:29.572Z,1.40
2017-08-13T08:36:29.598Z,1.30
2017-08-13T08:37:29.615Z,1.20
2017-08-13T08:38:29.647Z,1.00
2017-08-13T08:39:29.672Z,1.10
2017-08-13T08:40:29.700Z,1.10
2017-08-13T08:41:29.721Z,1.00
2017-08-13T08:42:29.738Z,1.10
2017-08-13T08:43:29.762Z,1.20
2017-08-13T08:44:29.787Z,1.30
2017-08-13T08:45:29.817Z,1.20
2017-08-13T08:46:29.842Z,1.40
2017-08-13T08:47:29.867Z,1.20
2017-08-13T08:48:29.886Z,1.50
2017-08-13T08:49:29.908Z,1.50
2017-08-13T08:50:29.932Z,1.30
2017-08-13T08:51:29.961Z,1.10
2017-08-13T08:52:29.983Z,1.10
2017-08-13T08:53:30.003Z,1.10
2017-08-13T08:54:30.028Z,1.20
2017-08-13T08:55:30.056Z,1.20
2017-08-13T08:56:30.089Z,1.10
2017-08-13T08:57:30.113Z,1.20
2017-08-13T08:58:30.127Z,1.30
2017-08-13T08:59:30.158Z,1.30
2017-08-13T09:00:30.187Z,1.40
2017-08-13T09:01:30.209Z,1.20
2017-08-13T09:02:30.224Z,1.30
2017-08-13T09:03:30.250Z,1.50
2017-08-13T09:04:30.273Z,1.50
2017-08-13T09:05:30.304Z,1.20
2017-08-13T09:06:30.318Z,1.40
2017-08-13T09:07:30.343Z,1.30
2017-08-13T09:08:30.367Z,1.40
2017-08-13T09:09:30.395Z,1.10
2017-08-13T09:10:30.427Z,1.20
2017-08-13T09:11:30.446Z,1.30
2017-08-13T09:12:30.460Z,1.10
2017-08-13T09:13:30.491Z,1.00
2017-08-13T09:14:30.524Z,1.30
2017-08-13T09:15:30.545Z,1.00
2017-08-13T09:16:30.563Z,1.00
2017-08-13T09:17:30.584Z,1.10
2017-08-13T09:18:30.605Z,1.20
2017-08-13T09:19:30.636Z,1.00
2017-08-13T09:20:30.655Z,1.00
2017-08-13T09:21:30.705Z,1.00
2017-08-13T09:22:30.705Z,1.00
2017-08-13T09:23:30.725Z,1.20
2017-08-13T09:24:30.748Z,0.90
2017-08-13T09:25:30.775Z,0.90
2017-08-13T09:26:30.799Z,1.20
2017-08-13T09:27:30.832Z,1.10
2017-08-13T09:28:30.857Z,1.10
2017-08-13T09:29:30.866Z,1.20
2017-08-13T09:30:30.893Z,1.30
2017-08-13T09:31:30.918Z,1.30
2017-08-13T09:32:30.957Z,1.10
2017-08-13T09:33:30.964Z,1.10
2017-08-13T09:34:30.997Z,1.20
2017-08-13T09:35:31.010Z,1.00
2017-08-13T09:36:31.244Z,1.10
2017-08-13T09:37:31.071Z,1.20
2017-08-13T09:38:31.099Z,1.10
2017-08-13T09:39:31.135Z,1.10
2017-08-13T09:40:31.136Z,1.30
2017-08-13T09:41:31.192Z,0.90
2017-08-13T09:42:31.177Z,1.00
2017-08-13T09:43:31.204Z,1.10
2017-08-13T09:44:31.245Z,1.20
2017-08-13T09:45:31.253Z,1.30
2017-08-13T09:46:31.277Z,0.90
2017-08-13T09:47:31.299Z,1.00
2017-08-13T09:48:31.328Z,1.20
2017-08-13T09:49:31.344Z,1.20
2017-08-13T09:50:31.382Z,1.20
2017-08-13T09:51:31.395Z,1.20
2017-08-13T09:52:31.421Z,1.20
2017-08-13T09:53:31.438Z,1.10
2017-08-13T09:54:31.469Z,1.00
2017-08-13T09:55:31.487Z,1.00
2017-08-13T09:56:31.521Z,0.90
2017-08-13T09:57:31.551Z,1.10
2017-08-13T09:58:31.565Z,1.00
2017-08-13T09:59:31.581Z,1.00
2017-08-13T10:00:31.612Z,0.90
2017-08-13T10:01:31.627Z,1.10
2017-08-13T10:02:31.655Z,1.10
2017-08-13T10:03:31.688Z,0.90
2017-08-13T10:04:31.706Z,1.40
2017-08-13T10:05:31.722Z,2.10
2017-08-13T10:06:31.750Z,2.10
2017-08-13T10:07:31.780Z,3.10
2017-08-13T10:08:31.810Z,2.60
2017-08-13T10:09:31.822Z,3.00
2017-08-13T10:10:31.851Z,2.90
2017-08-13T10:11:31.867Z,3.00
2017-08-13T10:12:31.888Z,3.10
2017-08-13T10:13:31.916Z,3.00
2017-08-13T10:14:31.940Z,3.50
2017-08-13T10:15:31.969Z,3.50
2017-08-13T10:16:31.985Z,3.50
2017-08-13T10:17:32.008Z,3.70
2017-08-13T10:18:32.036Z,3.70
2017-08-13T10:19:32.059Z,5.20
2017-08-13T10:20:32.105Z,3.90
2017-08-13T10:21:32.110Z,4.40
2017-08-13T10:22:32.134Z,5.40
2017-08-13T10:23:32.150Z,5.70
2017-08-13T10:24:32.177Z,5.90
2017-08-13T10:25:32.208Z,6.20
2017-08-13T10:26:32.225Z,6.30
2017-08-13T10:27:32.263Z,7.80
2017-08-13T10:28:32.269Z,8.20
2017-08-13T10:29:32.295Z,8.10
2017-08-13T10:30:32.321Z,8.30
2017-08-13T10:31:32.357Z,9.60
2017-08-13T10:32:32.378Z,11.30
2017-08-13T10:33:32.390Z,10.80
2017-08-13T10:34:32.420Z,8.80
2017-08-13T10:35:32.445Z,8.90
2017-08-13T10:36:32.467Z,9.10
2017-08-13T10:37:32.496Z,8.40
2017-08-13T10:38:32.511Z,8.00
2017-08-13T10:39:32.540Z,7.10
2017-08-13T10:40:32.569Z,7.20
2017-08-13T10:41:32.581Z,7.40
2017-08-13T10:42:32.606Z,7.50
2017-08-13T10:43:32.629Z,8.00
2017-08-13T10:44:32.651Z,7.80
2017-08-13T10:45:32.679Z,7.30
2017-08-13T10:46:32.701Z,6.90
2017-08-13T10:47:32.725Z,6.40
2017-08-13T10:48:32.750Z,6.70
2017-08-13T10:49:32.771Z,6.50
2017-08-13T10:50:32.800Z,6.80
2017-08-13T10:51:32.819Z,5.90
2017-08-13T10:52:32.847Z,6.50
2017-08-13T10:53:32.870Z,5.30
2017-08-13T10:54:32.893Z,5.90
2017-08-13T10:55:32.916Z,5.30
2017-08-13T10:56:32.946Z,5.20
2017-08-13T10:57:32.965Z,5.30
2017-08-13T10:58:32.988Z,6.40
2017-08-13T10:59:33.014Z,6.20
2017-08-13T11:00:33.037Z,5.90
2017-08-13T11:01:33.057Z,5.80
2017-08-13T11:02:33.083Z,6.50
2017-08-13T11:03:33.111Z,6.30
2017-08-13T11:04:33.174Z,7.20
2017-08-13T11:05:33.153Z,7.40
2017-08-13T11:06:33.176Z,7.40
2017-08-13T11:07:33.199Z,6.90
2017-08-13T11:08:33.232Z,7.60
2017-08-13T11:09:33.253Z,6.40
2017-08-13T11:10:33.273Z,6.30
2017-08-13T11:11:33.299Z,6.00
2017-08-13T11:12:33.366Z,4.80
2017-08-13T11:13:33.355Z,5.40
2017-08-13T11:14:33.377Z,4.90
2017-08-13T11:15:33.393Z,5.00
2017-08-13T11:16:33.420Z,4.80
2017-08-13T11:17:33.443Z,4.50
2017-08-13T11:18:33.466Z,4.30
2017-08-13T11:19:33.493Z,3.70
2017-08-13T11:20:33.523Z,4.40
2017-08-13T11:21:33.535Z,3.70
2017-08-13T11:22:33.564Z,3.10
2017-08-13T11:23:33.585Z,3.60
2017-08-13T11:24:33.603Z,3.40
2017-08-13T11:25:33.633Z,3.30
2017-08-13T11:26:33.662Z,3.50
2017-08-13T11:27:33.676Z,2.90
2017-08-13T11:28:33.705Z,2.80
2017-08-13T11:29:33.721Z,2.80
2017-08-13T11:30:33.757Z,2.70
2017-08-13T11:31:33.772Z,2.50
2017-08-13T11:32:33.803Z,2.50
2017-08-13T11:33:33.818Z,3.10
2017-08-13T11:34:33.847Z,2.60
2017-08-13T11:35:33.869Z,2.50
2017-08-13T11:36:33.898Z,2.40
2017-08-13T11:37:33.919Z,2.50
2017-08-13T11:38:33.938Z,2.10
2017-08-13T11:39:33.973Z,2.00
2017-08-13T11:40:33.999Z,1.90
2017-08-13T11:41:34.020Z,2.00
2017-08-13T11:42:34.039Z,1.90
2017-08-13T11:43:34.061Z,2.00
2017-08-13T11:44:34.088Z,2.20
2017-08-13T11:45:34.104Z,2.10
2017-08-13T11:46:34.135Z,1.80
2017-08-13T11:47:34.155Z,1.90
2017-08-13T11:48:34.188Z,2.00
2017-08-13T11:49:34.219Z,1.90
2017-08-13T11:50:34.229Z,1.80
2017-08-13T11:51:34.261Z,1.80
2017-08-13T11:52:34.276Z,1.80
2017-08-13T11:53:34.300Z,1.70
2017-08-13T11:54:34.332Z,1.70
2017-08-13T11:55:34.344Z,1.70
2017-08-13T11:56:34.369Z,1.80
2017-08-13T11:57:34.401Z,1.60
2017-08-13T11:58:34.416Z,1.60
2017-08-13T11:59:34.447Z,1.70
2017-08-13T12:00:34.476Z,1.30
2017-08-13T12:01:34.491Z,1.70
2017-08-13T12:02:34.517Z,1.50
2017-08-13T12:03:34.540Z,1.60
2017-08-13T12:04:34.568Z,1.50
2017-08-13T12:05:34.585Z,1.50
2017-08-13T12:06:34.610Z,1.50
2017-08-13T12:07:34.653Z,1.30
2017-08-13T12:08:34.656Z,1.20
2017-08-13T12:09:34.688Z,1.40
2017-08-13T12:10:34.701Z,1.40
2017-08-13T12:11:34.726Z,1.20
2017-08-13T12:12:34.760Z,1.70
2017-08-13T12:13:34.774Z,1.30
2017-08-13T12:14:34.800Z,1.60
2017-08-13T12:15:34.823Z,1.50
2017-08-13T12:16:34.848Z,1.40
2017-08-13T12:17:34.870Z,1.20
2017-08-13T12:18:34.900Z,1.50
2017-08-13T12:19:34.960Z,1.30
2017-08-13T12:20:34.945Z,1.20
2017-08-13T12:21:34.968Z,1.30
2017-08-13T12:22:34.992Z,1.30
2017-08-13T12:23:35.043Z,1.30
2017-08-13T12:24:35.044Z,1.50
2017-08-13T12:25:35.060Z,1.20
2017-08-13T12:26:35.086Z,1.30
2017-08-13T12:27:35.109Z,1.40
2017-08-13T12:28:35.138Z,1.30
2017-08-13T12:29:35.165Z,1.30
2017-08-13T12:30:35.195Z,1.20
2017-08-13T12:31:35.207Z,1.30
2017-08-13T12:32:35.257Z,1.40
2017-08-13T12:33:35.253Z,1.40
2017-08-13T12:34:35.284Z,1.40
2017-08-13T12:35:35.303Z,1.40
2017-08-13T12:36:35.334Z,1.30
2017-08-13T12:37:35.352Z,1.30
2017-08-13T12:38:35.387Z,1.20
2017-08-13T12:39:35.395Z,1.20
2017-08-13T12:40:35.422Z,1.40
2017-08-13T12:41:35.457Z,1.30
2017-08-13T12:42:35.470Z,1.20
2017-08-13T12:43:35.495Z,1.40
2017-08-13T12:44:35.527Z,1.30
2017-08-13T12:45:35.547Z,1.50
2017-08-13T12:46:35.575Z,1.30
2017-08-13T12:47:35.611Z,1.40
2017-08-13T12:48:35.618Z,1.20
2017-08-13T12:49:35.645Z,1.30
2017-08-13T12:50:35.667Z,1.20
2017-08-13T12:51:35.692Z,1.30
2017-08-13T12:52:35.714Z,1.30
2017-08-13T12:53:35.745Z,1.10
2017-08-13T12:54:35.761Z,1.20
2017-08-13T12:55:35.795Z,1.30
2017-08-13T12:56:35.817Z,1.40
2017-08-13T12:57:35.837Z,1.10
2017-08-13T12:58:35.861Z,1.20
2017-08-13T12:59:35.888Z,1.30
2017-08-13T13:00:35.905Z,1.30
2017-08-13T13:01:35.942Z,1.30
2017-08-13T13:02:35.960Z,1.20
2017-08-13T13:03:35.983Z,1.20
2017-08-13T13:04:36.002Z,1.10
2017-08-13T13:05:36.021Z,1.20
2017-08-13T13:06:36.047Z,1.30
2017-08-13T13:07:36.075Z,1.20
2017-08-13T13:08:36.104Z,1.10
2017-08-13T13:09:36.127Z,1.30
2017-08-13T13:10:36.160Z,1.30
2017-08-13T13:11:36.176Z,0.90
2017-08-13T13:12:36.208Z,1.20
2017-08-13T13:13:36.218Z,1.30
2017-08-13T13:14:36.249Z,1.20
2017-08-13T13:15:36.274Z,1.10
2017-08-13T13:16:36.303Z,1.10
2017-08-13T13:17:36.314Z,1.10
2017-08-13T13:18:36.338Z,1.10